createdAt,value
2023-02-05T00:02:24.033Z,12.82
2023-02-05T00:04:51.447Z,9.98
2023-02-05T00:07:18.566Z,10.93
2023-02-05T00:09:45.765Z,10.48
2023-02-05T00:12:13.134Z,11.80
2023-02-05T00:14:40.251Z,11.43
2023-02-05T00:17:07.389Z,12.70
2023-02-05T00:19:34.506Z,11.07
2023-02-05T00:22:01.741Z,12.95
2023-02-05T00:24:29.107Z,10.45
2023-02-05T00:26:56.518Z,10.73
2023-02-05T00:29:23.727Z,13.35
2023-02-05T00:31:51.340Z,20.67
2023-02-05T00:34:18.594Z,12.65
2023-02-05T00:36:47.467Z,13.07
2023-02-05T00:39:15.953Z,12.93
2023-02-05T00:41:43.097Z,12.50
2023-02-05T00:44:10.286Z,13.13
2023-02-05T00:46:37.950Z,10.73
2023-02-05T00:49:05.063Z,13.18
2023-02-05T00:51:32.637Z,13.63
2023-02-05T00:53:59.790Z,11.50
2023-02-05T00:56:26.964Z,11.90
2023-02-05T00:58:54.454Z,12.07
2023-02-05T01:01:21.664Z,12.48
2023-02-05T01:03:48.812Z,12.30
2023-02-05T01:06:16.116Z,13.52
2023-02-05T01:08:43.265Z,11.43
2023-02-05T01:11:11.339Z,12.90
2023-02-05T01:13:39.199Z,11.43
2023-02-05T01:16:06.764Z,12.40
2023-02-05T01:18:33.972Z,13.63
2023-02-05T01:21:01.121Z,10.73
2023-02-05T01:23:28.334Z,16.20
2023-02-05T01:25:55.542Z,11.73
2023-02-05T01:28:23.834Z,15.27
2023-02-05T01:30:51.778Z,12.35
2023-02-05T01:33:19.312Z,12.55
2023-02-05T01:35:46.527Z,13.57
2023-02-05T01:38:13.961Z,16.83
2023-02-05T01:40:41.278Z,13.82
2023-02-05T01:43:13.462Z,13.45
2023-02-05T01:45:52.957Z,12.30
2023-02-05T01:48:22.900Z,13.75
2023-02-05T01:50:53.280Z,12.60
2023-02-05T01:53:23.500Z,12.38
2023-02-05T01:56:13.357Z,11.20
2023-02-05T01:58:46.467Z,17.55
2023-02-05T02:01:13.647Z,17.13
2023-02-05T02:03:41.215Z,14.63
2023-02-05T02:06:10.041Z,13.50
2023-02-05T02:08:37.154Z,14.23
2023-02-05T02:11:06.267Z,11.13
2023-02-05T02:13:34.403Z,11.52
2023-02-05T02:16:05.665Z,12.38
2023-02-05T02:18:33.700Z,13.20
2023-02-05T02:21:20.149Z,18.25
2023-02-05T02:24:00.974Z,14.57
2023-02-05T02:26:42.755Z,19.98
2023-02-05T02:29:14.499Z,15.10
2023-02-05T02:31:56.467Z,17.43
2023-02-05T02:34:27.915Z,16.57
2023-02-05T02:36:59.046Z,16.90
2023-02-05T02:39:30.495Z,14.73
2023-02-05T02:42:02.534Z,18.58
2023-02-05T02:44:39.795Z,13.93
2023-02-05T02:47:11.873Z,15.57
2023-02-05T02:49:41.988Z,16.08
2023-02-05T02:52:12.411Z,18.95
2023-02-05T02:54:40.705Z,20.85
2023-02-05T02:57:09.434Z,15.15
2023-02-05T02:59:38.673Z,15.60
2023-02-05T03:02:09.951Z,19.02
2023-02-05T03:04:39.105Z,21.42
2023-02-05T03:07:23.592Z,15.77
2023-02-05T03:09:54.997Z,18.13
2023-02-05T03:12:23.762Z,21.38
2023-02-05T03:14:52.032Z,16.63
2023-02-05T03:17:19.822Z,16.23
2023-02-05T03:19:57.458Z,16.58
2023-02-05T03:22:24.635Z,16.45
2023-02-05T03:24:51.843Z,16.98
2023-02-05T03:27:22.002Z,20.90
2023-02-05T03:29:50.315Z,20.98
2023-02-05T03:32:38.632Z,17.95
2023-02-05T03:35:44.710Z,23.15
2023-02-05T03:38:16.024Z,19.27
2023-02-05T03:40:52.158Z,23.92
2023-02-05T03:43:37.773Z,19.30
2023-02-05T03:46:23.753Z,29.13
2023-02-05T03:48:58.286Z,22.45
2023-02-05T03:51:34.484Z,23.52
2023-02-05T03:54:11.114Z,29.77
2023-02-05T03:56:39.386Z,23.92
2023-02-05T03:59:08.859Z,25.52
2023-02-05T04:01:36.841Z,29.38
2023-02-05T04:04:04.973Z,26.73
2023-02-05T04:06:32.171Z,25.55
2023-02-05T04:08:59.309Z,23.92
2023-02-05T04:11:26.981Z,22.65
2023-02-05T04:13:54.226Z,31.23
2023-02-05T04:16:22.712Z,24.55
2023-02-05T04:18:49.847Z,28.35
2023-02-05T04:21:17.585Z,30.38
2023-02-05T04:23:47.088Z,30.08
2023-02-05T04:26:14.332Z,31.00
2023-02-05T04:28:48.607Z,31.63
2023-02-05T04:31:15.968Z,38.53
2023-02-05T04:33:43.932Z,31.25
2023-02-05T04:36:15.049Z,31.80
2023-02-05T04:38:42.823Z,30.25
2023-02-05T04:41:10.070Z,36.85
2023-02-05T04:43:37.241Z,33.13
2023-02-05T04:46:08.199Z,32.08
2023-02-05T04:48:36.312Z,33.35
2023-02-05T04:51:10.652Z,34.60
2023-02-05T04:53:37.881Z,37.80
2023-02-05T04:56:09.038Z,37.53
2023-02-05T04:58:36.313Z,37.45
2023-02-05T05:01:04.292Z,32.38
2023-02-05T05:03:31.772Z,42.88
2023-02-05T05:06:03.946Z,35.50
2023-02-05T05:08:31.160Z,39.33
2023-02-05T05:10:59.848Z,39.65
2023-02-05T05:13:27.230Z,36.17
2023-02-05T05:15:57.570Z,34.75
2023-02-05T05:18:24.772Z,40.15
2023-02-05T05:20:52.202Z,34.58
2023-02-05T05:23:20.763Z,37.15
2023-02-05T05:25:49.035Z,38.17
2023-02-05T05:28:20.490Z,35.95
2023-02-05T05:30:48.124Z,36.47
2023-02-05T05:33:15.612Z,36.83
2023-02-05T05:35:46.671Z,31.90
2023-02-05T05:38:13.830Z,33.70
2023-02-05T05:41:00.119Z,34.20
2023-02-05T05:43:45.869Z,34.42
2023-02-05T05:46:13.869Z,33.65
2023-02-05T05:48:41.089Z,35.00
2023-02-05T05:51:08.414Z,38.13
2023-02-05T05:53:35.649Z,37.53
2023-02-05T05:56:03.020Z,34.58
2023-02-05T05:58:30.357Z,42.83
2023-02-05T06:00:57.637Z,36.70
2023-02-05T06:03:25.888Z,38.83
2023-02-05T06:05:53.127Z,37.85
2023-02-05T06:08:20.353Z,43.22
2023-02-05T06:10:47.537Z,37.55
2023-02-05T06:13:14.632Z,37.17
2023-02-05T06:15:41.795Z,46.13
2023-02-05T06:18:09.008Z,40.13
2023-02-05T06:20:36.153Z,34.33
2023-02-05T06:23:03.558Z,44.63
2023-02-05T06:25:30.646Z,38.80
2023-02-05T06:27:58.127Z,39.95
2023-02-05T06:30:25.605Z,40.55
2023-02-05T06:32:53.761Z,37.47
2023-02-05T06:35:21.128Z,34.75
2023-02-05T06:37:48.308Z,38.90
2023-02-05T06:40:17.927Z,33.92
2023-02-05T06:42:52.520Z,35.67
2023-02-05T06:45:19.872Z,34.35
2023-02-05T06:47:47.052Z,29.92
2023-02-05T06:50:14.417Z,36.53
2023-02-05T06:52:41.553Z,21.85
2023-02-05T06:55:08.792Z,18.48
2023-02-05T06:57:35.986Z,19.40
2023-02-05T07:00:03.303Z,18.80
2023-02-05T07:02:30.599Z,11.68
2023-02-05T07:04:57.870Z,9.23
2023-02-05T07:07:25.099Z,7.75
2023-02-05T07:09:52.531Z,10.85
2023-02-05T07:12:19.785Z,14.35
2023-02-05T07:14:46.996Z,7.68
2023-02-05T07:17:14.177Z,9.57
2023-02-05T07:19:41.373Z,10.45
2023-02-05T07:22:08.989Z,7.55
2023-02-05T07:24:36.057Z,12.00
2023-02-05T07:27:03.349Z,7.20
2023-02-05T07:29:30.448Z,8.98
2023-02-05T07:31:57.646Z,8.07
2023-02-05T07:34:25.160Z,8.50
2023-02-05T07:36:53.252Z,10.18
2023-02-05T07:39:20.560Z,4.45
2023-02-05T07:41:48.033Z,5.00
2023-02-05T07:44:28.344Z,6.80
2023-02-05T07:46:55.905Z,9.70
2023-02-05T07:49:23.151Z,4.55
2023-02-05T07:51:50.308Z,1.60
2023-02-05T07:54:17.466Z,6.25
2023-02-05T07:56:44.798Z,5.18
2023-02-05T07:59:12.027Z,11.43
2023-02-05T08:01:40.447Z,3.60
2023-02-05T08:04:08.440Z,5.93
2023-02-05T08:06:36.101Z,10.48
2023-02-05T08:09:03.376Z,9.30
2023-02-05T08:11:32.611Z,5.55
2023-02-05T08:14:00.024Z,6.40
2023-02-05T08:16:27.544Z,11.02
2023-02-05T08:18:54.681Z,6.63
2023-02-05T08:21:33.256Z,10.00
2023-02-05T08:24:04.285Z,4.72
2023-02-05T08:26:31.795Z,12.35
2023-02-05T08:28:59.713Z,13.02
2023-02-05T08:31:27.066Z,5.88
2023-02-05T08:33:56.504Z,11.70
2023-02-05T08:36:24.012Z,6.07
2023-02-05T08:38:51.132Z,6.00
2023-02-05T08:41:21.338Z,5.53
2023-02-05T08:43:49.734Z,4.30
2023-02-05T08:46:19.141Z,7.57
2023-02-05T08:48:46.541Z,10.32
2023-02-05T08:51:20.036Z,4.38
2023-02-05T08:53:47.612Z,4.47
2023-02-05T08:56:15.855Z,7.18
2023-02-05T08:58:43.096Z,8.73
2023-02-05T09:01:12.585Z,5.78
2023-02-05T09:03:39.827Z,7.28
2023-02-05T09:06:08.588Z,6.22
2023-02-05T09:08:36.519Z,4.28
2023-02-05T09:11:06.058Z,4.65
2023-02-05T09:13:33.405Z,6.78
2023-02-05T09:16:00.580Z,7.53
2023-02-05T09:18:27.802Z,6.63
2023-02-05T09:20:54.962Z,10.00
2023-02-05T09:23:22.289Z,10.80
2023-02-05T09:25:49.539Z,5.55
2023-02-05T09:28:16.995Z,6.47
2023-02-05T09:30:46.011Z,6.65
2023-02-05T09:33:16.090Z,7.07
2023-02-05T09:35:43.364Z,7.70
2023-02-05T09:38:14.218Z,7.80
2023-02-05T09:40:48.122Z,5.10
2023-02-05T09:43:23.723Z,5.57
2023-02-05T09:45:50.787Z,4.15
2023-02-05T09:48:36.814Z,6.88
2023-02-05T09:51:04.331Z,6.63
2023-02-05T09:53:35.499Z,11.52
2023-02-05T09:56:03.403Z,7.18
2023-02-05T09:58:32.712Z,9.93
2023-02-05T10:01:14.024Z,8.35
2023-02-05T10:03:48.745Z,11.52
2023-02-05T10:06:18.747Z,10.05
2023-02-05T10:08:54.746Z,5.50
2023-02-05T10:11:37.176Z,5.25
2023-02-05T10:14:20.674Z,6.63
2023-02-05T10:16:53.310Z,10.60
2023-02-05T10:22:11.614Z,7.22
2023-02-05T10:24:38.664Z,10.55
2023-02-05T10:27:13.300Z,7.50
2023-02-05T10:29:46.537Z,5.63
2023-02-05T10:32:24.239Z,13.63
2023-02-05T10:35:05.574Z,12.30
2023-02-05T10:37:41.601Z,9.00
2023-02-05T10:40:12.915Z,8.63
2023-02-05T10:42:49.979Z,5.22
2023-02-05T10:45:19.480Z,6.05
2023-02-05T10:47:49.611Z,12.77
2023-02-05T10:50:20.778Z,5.75
2023-02-05T10:52:47.936Z,5.35
2023-02-05T10:55:15.245Z,12.38
2023-02-05T10:57:42.437Z,11.90
2023-02-05T11:00:15.452Z,8.25
2023-02-05T11:02:44.735Z,10.75
2023-02-05T11:05:18.490Z,12.27
2023-02-05T11:07:47.057Z,10.02
2023-02-05T11:10:23.493Z,9.93
2023-02-05T11:13:13.983Z,11.90
2023-02-05T11:15:54.907Z,12.57
2023-02-05T11:18:24.503Z,9.57
2023-02-05T11:20:56.073Z,19.55
2023-02-05T11:23:24.268Z,10.82
2023-02-05T11:25:51.652Z,14.40
2023-02-05T11:28:27.983Z,11.77
2023-02-05T11:30:55.729Z,10.32
2023-02-05T11:33:23.200Z,15.02
2023-02-05T11:36:08.188Z,15.32
2023-02-05T11:38:47.231Z,13.98
2023-02-05T11:41:18.545Z,14.18
2023-02-05T11:43:52.330Z,14.70
2023-02-05T11:46:20.575Z,12.57
2023-02-05T11:48:57.205Z,8.95
2023-02-05T11:51:33.328Z,19.13
2023-02-05T11:54:01.244Z,12.35
2023-02-05T11:56:28.415Z,20.42
2023-02-05T11:59:02.611Z,13.70
2023-02-05T12:01:33.749Z,20.30
2023-02-05T12:04:15.340Z,21.73
2023-02-05T12:06:42.459Z,25.65
2023-02-05T12:09:12.677Z,14.65
2023-02-05T12:12:03.415Z,10.50
2023-02-05T12:14:50.904Z,11.27
2023-02-05T12:17:23.755Z,25.58
2023-02-05T12:20:05.280Z,12.57
2023-02-05T12:22:47.475Z,16.38
2023-02-05T12:25:20.827Z,15.27
2023-02-05T12:27:48.017Z,13.05
2023-02-05T12:30:33.913Z,14.65
2023-02-05T12:33:18.810Z,18.30
2023-02-05T12:35:51.697Z,19.85
2023-02-05T12:38:37.755Z,16.77
2023-02-05T12:41:14.788Z,18.08
2023-02-05T12:43:45.067Z,20.55
2023-02-05T12:46:30.388Z,17.48
2023-02-05T12:49:16.353Z,19.85
2023-02-05T12:51:49.044Z,24.25
2023-02-05T12:54:42.805Z,18.75
2023-02-05T12:57:15.490Z,16.95
2023-02-05T13:02:15.707Z,18.45
2023-02-05T13:04:49.301Z,17.33
2023-02-05T13:07:26.462Z,21.33
2023-02-05T13:10:01.195Z,20.63
2023-02-05T13:12:30.332Z,16.58
2023-02-05T13:15:03.070Z,19.35
2023-02-05T13:17:31.874Z,27.02
2023-02-05T13:20:00.620Z,18.42
2023-02-05T13:22:48.340Z,19.60
2023-02-05T13:25:44.382Z,16.42
2023-02-05T13:28:42.131Z,19.67
2023-02-05T13:31:16.014Z,25.02
2023-02-05T13:33:43.706Z,22.50
2023-02-05T13:36:37.172Z,14.05
2023-02-05T13:39:17.581Z,23.63
2023-02-05T13:41:59.813Z,18.63
2023-02-05T13:44:45.708Z,20.10
2023-02-05T13:47:35.813Z,26.45
2023-02-05T13:50:05.849Z,20.85
2023-02-05T13:52:32.946Z,30.52
2023-02-05T13:55:18.343Z,18.27
2023-02-05T13:58:04.332Z,19.23
2023-02-05T14:00:31.851Z,27.95
2023-02-05T14:03:05.461Z,22.98
2023-02-05T14:05:34.261Z,19.20
2023-02-05T14:08:03.192Z,24.05
2023-02-05T14:10:31.699Z,21.55
2023-02-05T14:13:10.822Z,25.23
2023-02-05T14:15:44.769Z,33.70
2023-02-05T14:18:14.275Z,13.50
2023-02-05T14:20:45.352Z,21.33
2023-02-05T14:23:13.900Z,21.27
2023-02-05T14:25:46.029Z,14.60
2023-02-05T14:28:16.246Z,21.80
2023-02-05T14:30:59.277Z,19.50
2023-02-05T14:33:31.594Z,19.08
2023-02-05T14:36:17.035Z,25.50
2023-02-05T14:38:46.360Z,23.05
2023-02-05T14:41:14.960Z,26.77
2023-02-05T14:43:44.023Z,22.98
2023-02-05T14:46:21.919Z,24.30
2023-02-05T14:48:49.227Z,24.00
2023-02-05T14:51:25.886Z,25.85
2023-02-05T14:53:58.340Z,24.73
2023-02-05T14:56:31.728Z,25.15
2023-02-05T14:59:01.171Z,25.67
2023-02-05T15:01:28.475Z,18.15
2023-02-05T15:03:55.975Z,25.02
2023-02-05T15:06:25.976Z,22.65
2023-02-05T15:09:02.553Z,23.60
2023-02-05T15:11:48.445Z,15.27
2023-02-05T15:14:21.548Z,23.40
2023-02-05T15:16:49.437Z,24.88
2023-02-05T15:19:17.316Z,16.85
2023-02-05T15:21:48.575Z,21.20
2023-02-05T15:24:20.621Z,18.33
2023-02-05T15:26:53.928Z,22.50
2023-02-05T15:29:27.034Z,26.95
2023-02-05T15:32:01.325Z,19.00
2023-02-05T15:34:36.730Z,20.52
2023-02-05T15:37:09.964Z,25.20
2023-02-05T15:39:49.316Z,24.98
2023-02-05T15:42:24.060Z,14.50
2023-02-05T15:44:51.226Z,19.02
2023-02-05T15:47:20.146Z,23.70
2023-02-05T15:49:49.923Z,28.15
2023-02-05T15:52:21.991Z,18.73
2023-02-05T15:54:49.627Z,21.30
2023-02-05T15:57:20.316Z,12.82
2023-02-05T15:59:47.505Z,25.65
2023-02-05T16:02:19.113Z,28.17
2023-02-05T16:04:53.464Z,30.35
2023-02-05T16:07:23.333Z,41.80
2023-02-05T16:09:53.887Z,29.75
2023-02-05T16:12:21.236Z,24.75
2023-02-05T16:14:58.081Z,26.52
2023-02-05T16:17:40.072Z,25.00
2023-02-05T16:20:16.321Z,27.27
2023-02-05T16:22:44.640Z,25.67
2023-02-05T16:25:23.244Z,23.55
2023-02-05T16:27:51.956Z,23.77
2023-02-05T16:30:33.051Z,27.42
2023-02-05T16:33:01.713Z,23.33
2023-02-05T16:35:35.206Z,23.70
2023-02-05T16:38:08.712Z,28.83
2023-02-05T16:40:39.185Z,28.42
2023-02-05T16:43:18.484Z,31.70
2023-02-05T16:46:07.108Z,27.83
2023-02-05T16:48:36.600Z,28.00
2023-02-05T16:51:04.135Z,33.00
2023-02-05T16:53:32.658Z,30.10
2023-02-05T16:56:13.984Z,19.73
2023-02-05T16:59:01.056Z,28.48
2023-02-05T17:01:29.805Z,28.30
2023-02-05T17:03:57.228Z,22.52
2023-02-05T17:06:24.617Z,48.80
2023-02-05T17:08:54.990Z,27.27
2023-02-05T17:11:41.938Z,21.90
2023-02-05T17:14:14.060Z,21.15
2023-02-05T17:16:42.062Z,21.52
2023-02-05T17:19:24.424Z,26.80
2023-02-05T17:22:11.558Z,22.77
2023-02-05T17:24:38.793Z,29.40
2023-02-05T17:27:06.284Z,22.15
2023-02-05T17:29:35.384Z,26.80
2023-02-05T17:32:04.241Z,33.33
2023-02-05T17:34:31.513Z,22.08
2023-02-05T17:36:58.698Z,31.67
2023-02-05T17:39:25.811Z,25.85
2023-02-05T17:42:04.940Z,41.53
2023-02-05T17:44:33.992Z,32.25
2023-02-05T17:47:01.831Z,22.70
2023-02-05T17:49:29.101Z,22.63
2023-02-05T17:51:56.230Z,35.50
2023-02-05T17:54:25.444Z,30.90
2023-02-05T17:56:54.131Z,28.77
2023-02-05T17:59:23.139Z,46.22
2023-02-05T18:01:50.660Z,35.22
2023-02-05T18:04:18.666Z,35.65
2023-02-05T18:06:46.656Z,29.15
2023-02-05T18:09:13.935Z,23.77
2023-02-05T18:11:42.727Z,29.80
2023-02-05T18:14:10.372Z,31.95
2023-02-05T18:16:37.904Z,35.83
2023-02-05T18:19:05.235Z,38.45
2023-02-05T18:21:32.891Z,25.77
2023-02-05T18:23:59.968Z,33.00
2023-02-05T18:26:27.111Z,27.15
2023-02-05T18:28:54.581Z,34.47
2023-02-05T18:31:22.041Z,26.13
2023-02-05T18:33:51.607Z,31.63
2023-02-05T18:36:18.938Z,28.45
2023-02-05T18:38:46.121Z,35.17
2023-02-05T18:41:18.023Z,28.20
2023-02-05T18:43:45.593Z,27.02
2023-02-05T18:46:18.038Z,31.30
2023-02-05T18:48:45.685Z,33.10
2023-02-05T18:51:14.276Z,33.67
2023-02-05T18:53:43.178Z,28.02
2023-02-05T18:56:16.173Z,30.45
2023-02-05T18:58:44.573Z,28.95
2023-02-05T19:01:12.926Z,26.40
2023-02-05T19:03:41.362Z,27.98
2023-02-05T19:06:12.592Z,32.13
2023-02-05T19:08:41.040Z,30.02
2023-02-05T19:11:09.611Z,26.08
2023-02-05T19:13:37.395Z,29.00
2023-02-05T19:16:06.041Z,30.20
2023-02-05T19:18:33.737Z,29.98
2023-02-05T19:21:04.847Z,35.78
2023-02-05T19:23:31.963Z,30.30
2023-02-05T19:26:02.173Z,29.98
2023-02-05T19:28:32.771Z,37.10
2023-02-05T19:31:11.008Z,26.30
2023-02-05T19:33:41.595Z,30.40
2023-02-05T19:36:09.510Z,35.63
2023-02-05T19:38:37.402Z,25.10
2023-02-05T19:41:07.393Z,23.30
2023-02-05T19:43:34.714Z,22.15
2023-02-05T19:46:08.491Z,25.67
2023-02-05T19:48:36.377Z,26.20
2023-02-05T19:51:04.762Z,19.02
2023-02-05T19:53:32.020Z,23.27
2023-02-05T19:56:07.265Z,30.33
2023-02-05T19:58:36.170Z,30.10
2023-02-05T20:01:10.954Z,30.42
2023-02-05T20:03:38.187Z,27.08
2023-02-05T20:06:05.704Z,34.15
2023-02-05T20:08:32.936Z,30.38
2023-02-05T20:11:00.637Z,32.58
2023-02-05T20:13:31.426Z,28.02
2023-02-05T20:16:05.753Z,19.98
2023-02-05T20:18:33.168Z,23.23
2023-02-05T20:21:00.295Z,29.15
2023-02-05T20:23:27.933Z,20.95
2023-02-05T20:26:01.141Z,23.67
2023-02-05T20:28:28.433Z,30.70
2023-02-05T20:31:14.467Z,29.88
2023-02-05T20:33:43.004Z,19.92
2023-02-05T20:36:12.199Z,19.13
2023-02-05T20:38:39.948Z,25.80
2023-02-05T20:41:17.751Z,30.08
2023-02-05T20:43:45.377Z,20.15
2023-02-05T20:46:12.509Z,22.67
2023-02-05T20:48:39.643Z,27.20
2023-02-05T20:51:06.916Z,19.05
2023-02-05T20:53:34.420Z,19.02
2023-02-05T20:56:02.547Z,25.35
2023-02-05T20:58:29.627Z,37.05
2023-02-05T21:00:59.085Z,29.77
2023-02-05T21:03:30.168Z,30.27
2023-02-05T21:05:57.752Z,31.30
2023-02-05T21:08:24.895Z,25.85
2023-02-05T21:10:52.078Z,29.85
2023-02-05T21:13:19.288Z,23.65
2023-02-05T21:15:58.759Z,22.23
2023-02-05T21:18:26.539Z,17.35
2023-02-05T21:20:54.113Z,21.88
2023-02-05T21:23:21.880Z,15.73
2023-02-05T21:25:49.154Z,22.30
2023-02-05T21:28:18.708Z,22.90
2023-02-05T21:30:50.938Z,23.33
2023-02-05T21:33:18.395Z,21.85
2023-02-05T21:35:45.458Z,23.17
2023-02-05T21:38:12.653Z,24.13
2023-02-05T21:40:39.796Z,24.00
2023-02-05T21:43:06.940Z,20.48
2023-02-05T21:45:36.624Z,22.73
2023-02-05T21:48:04.149Z,26.30
2023-02-05T21:50:31.405Z,23.30
2023-02-05T21:52:58.471Z,23.23
2023-02-05T21:55:27.935Z,21.63
2023-02-05T21:57:55.057Z,17.15
2023-02-05T22:00:22.150Z,25.73
2023-02-05T22:02:49.278Z,17.10
2023-02-05T22:05:16.442Z,23.08
2023-02-05T22:07:43.596Z,21.38
2023-02-05T22:10:10.751Z,23.92
2023-02-05T22:12:37.930Z,29.90
2023-02-05T22:15:05.271Z,24.83
2023-02-05T22:17:33.235Z,25.73
2023-02-05T22:20:00.423Z,32.60
2023-02-05T22:22:27.549Z,17.95
2023-02-05T22:24:54.694Z,21.73
2023-02-05T22:27:21.881Z,27.83
2023-02-05T22:29:50.097Z,19.80
2023-02-05T22:32:17.385Z,31.27
2023-02-05T22:34:44.479Z,23.80
2023-02-05T22:37:11.833Z,17.95
2023-02-05T22:39:39.121Z,24.85
2023-02-05T22:42:06.301Z,20.40
2023-02-05T22:44:33.870Z,21.88
2023-02-05T22:47:02.196Z,23.35
2023-02-05T22:49:29.315Z,23.58
2023-02-05T22:51:56.502Z,28.77
2023-02-05T22:54:23.609Z,31.25
2023-02-05T22:56:50.671Z,20.98
2023-02-05T22:59:17.764Z,22.58
2023-02-05T23:01:44.913Z,28.95
2023-02-05T23:04:12.178Z,21.77
2023-02-05T23:06:40.657Z,25.10
2023-02-05T23:09:09.966Z,22.02
2023-02-05T23:11:37.279Z,20.92
2023-02-05T23:14:05.247Z,21.80
2023-02-05T23:16:33.557Z,22.85
2023-02-05T23:19:02.170Z,24.70
2023-02-05T23:21:31.072Z,21.40
2023-02-05T23:23:58.322Z,19.55
2023-02-05T23:26:26.749Z,16.35
2023-02-05T23:28:54.758Z,20.38
2023-02-05T23:31:22.939Z,18.23
2023-02-05T23:33:50.377Z,28.27
2023-02-05T23:36:17.824Z,19.38
2023-02-05T23:38:45.024Z,20.60
2023-02-05T23:41:12.920Z,13.07
2023-02-05T23:43:40.071Z,18.63
2023-02-05T23:46:07.993Z,23.60
2023-02-05T23:48:35.370Z,17.75
2023-02-05T23:51:02.565Z,17.70
2023-02-05T23:53:29.714Z,21.48
2023-02-05T23:55:56.868Z,17.17
2023-02-05T23:58:25.696Z,20.70
